Time;durP1;ratioP1;P1;durP2;ratioP2;P2;SDS_P1;SDS_P2;PMS_P1;PMS_P2;Temp;Humidity;BMP_temperature;BMP_pressure;BME280_temperature;BME280_humidity;BME280_pressure;Samples;Min_cycle;Max_cycle;Signal;HPM_P1;HPM_P2
2022/05/12 00:00:06;;;;;;;6.38;1.80;;;;;;;;;;5022185;28;20041;-88
2022/05/12 00:02:33;;;;;;;6.60;1.67;;;;;;;;;;5015430;28;20029;-88
2022/05/12 00:04:59;;;;;;;6.22;2.05;;;;;;;;;;5021356;28;20048;-84
2022/05/12 00:07:25;;;;;;;7.63;1.98;;;;;;;;;;5033729;28;20055;-83
2022/05/12 00:09:52;;;;;;;7.65;1.88;;;;;;;;;;5036370;28;20051;-88
2022/05/12 00:12:18;;;;;;;7.72;2.00;;;;;;;;;;5000023;28;20048;-83
2022/05/12 00:14:44;;;;;;;5.63;2.25;;;;;;;;;;5037155;28;20045;-86
2022/05/12 00:17:10;;;;;;;5.72;2.00;;;;;;;;;;5035693;28;20045;-88
2022/05/12 00:19:37;;;;;;;8.75;2.05;;;;;;;;;;5014125;28;20128;-86
2022/05/12 00:22:03;;;;;;;7.10;1.70;;;;;;;;;;5030412;28;20562;-87
2022/05/12 00:24:29;;;;;;;5.82;1.65;;;;;;;;;;5015696;28;20045;-86
2022/05/12 00:26:55;;;;;;;9.77;1.98;;;;;;;;;;5018889;28;20037;-84
2022/05/12 00:29:21;;;;;;;6.78;2.15;;;;;;;;;;5002427;28;20045;-84
2022/05/12 00:31:48;;;;;;;7.90;2.45;;;;;;;;;;5035526;28;20049;-86
2022/05/12 00:34:15;;;;;;;14.45;2.20;;;;;;;;;;5033745;28;20044;-88
2022/05/12 00:36:41;;;;;;;5.97;2.05;;;;;;;;;;4997037;28;20164;-82
2022/05/12 00:39:07;;;;;;;7.13;2.20;;;;;;;;;;5036970;28;20049;-89
2022/05/12 00:41:34;;;;;;;7.70;2.40;;;;;;;;;;5035733;28;20044;-89
2022/05/12 00:44:02;;;;;;;5.72;2.20;;;;;;;;;;5038675;28;20041;-84
2022/05/12 00:46:31;;;;;;;7.78;1.77;;;;;;;;;;5017449;28;20545;-89
2022/05/12 00:49:03;;;;;;;5.32;1.80;;;;;;;;;;5021215;28;20037;-88
2022/05/12 00:51:41;;;;;;;9.25;2.05;;;;;;;;;;5037773;28;20065;-85
2022/05/12 00:54:11;;;;;;;12.55;1.90;;;;;;;;;;5041652;28;20058;-86
2022/05/12 00:56:37;;;;;;;4.75;1.48;;;;;;;;;;5041922;28;20084;-83
2022/05/12 00:59:07;;;;;;;6.22;1.70;;;;;;;;;;5046697;28;20032;-84
2022/05/12 01:01:33;;;;;;;4.22;1.85;;;;;;;;;;5047113;28;20037;-85
2022/05/12 01:03:59;;;;;;;6.45;1.63;;;;;;;;;;5051903;28;20120;-86
2022/05/12 01:06:26;;;;;;;6.43;1.63;;;;;;;;;;5034382;28;20033;-88
2022/05/12 01:08:53;;;;;;;8.00;1.60;;;;;;;;;;5023793;28;20088;-85
2022/05/12 01:11:19;;;;;;;5.65;1.60;;;;;;;;;;5038852;28;20385;-87
2022/05/12 01:13:48;;;;;;;4.57;1.50;;;;;;;;;;5037583;28;20136;-87
2022/05/12 01:16:31;;;;;;;6.32;1.60;;;;;;;;;;5036771;28;20044;-88
2022/05/12 01:18:58;;;;;;;4.30;1.83;;;;;;;;;;5038587;28;20098;-86
2022/05/12 01:21:24;;;;;;;10.10;1.58;;;;;;;;;;5024865;28;20045;-89
2022/05/12 01:23:51;;;;;;;5.05;1.50;;;;;;;;;;5043930;28;20386;-87
2022/05/12 01:26:17;;;;;;;5.70;1.88;;;;;;;;;;5035411;28;20519;-81
2022/05/12 01:28:43;;;;;;;5.72;1.67;;;;;;;;;;5040454;28;20128;-85
2022/05/12 01:31:15;;;;;;;6.88;2.20;;;;;;;;;;5020920;28;20071;-85
2022/05/12 01:33:41;;;;;;;3.42;1.80;;;;;;;;;;5003372;28;20527;-88
2022/05/12 01:36:07;;;;;;;6.20;2.25;;;;;;;;;;5035129;28;20049;-86
2022/05/12 01:38:33;;;;;;;3.75;1.92;;;;;;;;;;5034603;28;20053;-85
2022/05/12 01:40:59;;;;;;;7.00;2.20;;;;;;;;;;5036295;28;20041;-83
2022/05/12 01:43:29;;;;;;;5.72;2.08;;;;;;;;;;5038400;28;20108;-86
2022/05/12 01:45:55;;;;;;;4.35;2.00;;;;;;;;;;5023372;28;20049;-87
2022/05/12 01:48:21;;;;;;;8.10;1.85;;;;;;;;;;5037873;28;20035;-87
2022/05/12 01:50:48;;;;;;;5.22;2.05;;;;;;;;;;5002424;28;20093;-84
2022/05/12 01:53:15;;;;;;;13.00;2.25;;;;;;;;;;5015035;28;20049;-82
2022/05/12 01:55:43;;;;;;;5.22;1.90;;;;;;;;;;5020857;28;20041;-87
2022/05/12 01:58:10;;;;;;;6.40;2.13;;;;;;;;;;5040419;28;20041;-86
2022/05/12 02:00:37;;;;;;;5.95;1.95;;;;;;;;;;5043014;28;20046;-85
2022/05/12 02:03:03;;;;;;;6.10;2.22;;;;;;;;;;5050345;28;20161;-87
2022/05/12 02:05:30;;;;;;;4.47;1.92;;;;;;;;;;5029140;28;20091;-81
2022/05/12 02:07:56;;;;;;;7.75;2.35;;;;;;;;;;5023866;28;20137;-85
2022/05/12 02:10:24;;;;;;;5.90;2.22;;;;;;;;;;5020461;28;20052;-86
2022/05/12 02:12:50;;;;;;;5.97;2.65;;;;;;;;;;5022480;28;20045;-82
2022/05/12 02:15:16;;;;;;;5.43;2.33;;;;;;;;;;5036172;28;20393;-84
2022/05/12 02:17:42;;;;;;;6.47;2.30;;;;;;;;;;5035646;28;20555;-87
2022/05/12 02:20:10;;;;;;;4.97;2.63;;;;;;;;;;5024340;28;20409;-83
2022/05/12 02:22:36;;;;;;;4.80;2.35;;;;;;;;;;5045264;28;20045;-81
2022/05/12 02:25:03;;;;;;;10.57;3.05;;;;;;;;;;5045652;28;20067;-85
2022/05/12 02:27:29;;;;;;;5.60;2.40;;;;;;;;;;5028611;28;20033;-87
2022/05/12 02:29:55;;;;;;;4.32;2.42;;;;;;;;;;5026614;28;20557;-88
2022/05/12 02:32:22;;;;;;;7.05;2.47;;;;;;;;;;5024483;28;20041;-82
2022/05/12 02:34:48;;;;;;;7.07;2.83;;;;;;;;;;5039628;28;20060;-86
2022/05/12 02:37:15;;;;;;;4.50;2.10;;;;;;;;;;4989073;28;20152;-89
2022/05/12 02:39:43;;;;;;;5.75;2.70;;;;;;;;;;5023115;28;20081;-86
2022/05/12 02:42:10;;;;;;;5.57;2.47;;;;;;;;;;5025207;28;20043;-88
2022/05/12 02:44:42;;;;;;;4.32;2.40;;;;;;;;;;5006603;28;20048;-87
2022/05/12 02:47:11;;;;;;;3.75;2.40;;;;;;;;;;5037466;28;20041;-83
2022/05/12 02:49:42;;;;;;;6.97;2.17;;;;;;;;;;5035842;28;20525;-86
2022/05/12 02:52:09;;;;;;;10.23;2.53;;;;;;;;;;5016169;28;20049;-88
2022/05/12 02:54:36;;;;;;;5.28;2.67;;;;;;;;;;5017252;28;20045;-86
2022/05/12 02:57:02;;;;;;;4.97;2.67;;;;;;;;;;5019848;28;20772;-87
2022/05/12 02:59:29;;;;;;;11.00;2.90;;;;;;;;;;5020469;28;20049;-84
2022/05/12 03:01:55;;;;;;;7.60;2.72;;;;;;;;;;5018790;28;20041;-88
2022/05/12 03:04:21;;;;;;;7.10;3.15;;;;;;;;;;5020520;28;20045;-89
2022/05/12 03:06:48;;;;;;;10.05;3.15;;;;;;;;;;5003555;28;22022;-86
2022/05/12 03:09:14;;;;;;;8.15;2.97;;;;;;;;;;5041450;28;20043;-85
2022/05/12 03:11:40;;;;;;;12.48;3.55;;;;;;;;;;5014895;28;20425;-89
2022/05/12 03:14:12;;;;;;;11.40;3.38;;;;;;;;;;4989281;28;20055;-82
2022/05/12 03:16:38;;;;;;;10.55;3.80;;;;;;;;;;5017962;28;20041;-83
2022/05/12 03:19:05;;;;;;;8.93;3.78;;;;;;;;;;5005591;28;20041;-88
2022/05/12 03:21:31;;;;;;;11.77;3.53;;;;;;;;;;5019847;28;20041;-84
2022/05/12 03:23:57;;;;;;;7.30;3.20;;;;;;;;;;5020023;28;20041;-83
2022/05/12 03:26:24;;;;;;;8.43;3.60;;;;;;;;;;5020258;28;20064;-83
2022/05/12 03:28:50;;;;;;;7.93;4.10;;;;;;;;;;5017489;28;20052;-88
2022/05/12 03:31:16;;;;;;;6.97;4.10;;;;;;;;;;5016815;28;20041;-88
2022/05/12 03:33:43;;;;;;;11.68;3.05;;;;;;;;;;5033310;28;20131;-85
2022/05/12 03:36:10;;;;;;;9.02;3.17;;;;;;;;;;5019339;28;20041;-86
2022/05/12 03:38:43;;;;;;;6.60;3.88;;;;;;;;;;5001302;28;20049;-87
2022/05/12 03:41:09;;;;;;;12.38;4.53;;;;;;;;;;5001098;28;20130;-88
2022/05/12 03:46:20;;;;;;;7.18;3.40;;;;;;;;;;5036646;28;20129;-89
2022/05/12 03:48:46;;;;;;;9.75;3.50;;;;;;;;;;5033499;28;20071;-89
2022/05/12 03:51:12;;;;;;;9.00;3.55;;;;;;;;;;5016748;28;20146;-89
2022/05/12 03:53:45;;;;;;;10.70;4.10;;;;;;;;;;5046742;28;20045;-90
2022/05/12 03:56:11;;;;;;;10.05;4.68;;;;;;;;;;5001511;28;20045;-85
2022/05/12 03:58:38;;;;;;;14.10;4.22;;;;;;;;;;5036129;28;20037;-85
2022/05/12 04:01:05;;;;;;;11.57;4.28;;;;;;;;;;5009745;28;20040;-83
2022/05/12 04:03:31;;;;;;;14.05;4.38;;;;;;;;;;5036473;28;20366;-86
2022/05/12 04:06:01;;;;;;;13.65;4.72;;;;;;;;;;5034352;28;20049;-87
2022/05/12 04:08:27;;;;;;;15.20;5.32;;;;;;;;;;5020589;28;20131;-87
2022/05/12 04:10:54;;;;;;;16.42;4.40;;;;;;;;;;5037627;28;20109;-86
2022/05/12 04:13:20;;;;;;;12.90;4.78;;;;;;;;;;5017596;28;20280;-86
2022/05/12 04:15:46;;;;;;;16.65;5.32;;;;;;;;;;5016344;28;20044;-87
2022/05/12 04:18:13;;;;;;;14.50;5.57;;;;;;;;;;5033922;28;20955;-87
2022/05/12 04:20:40;;;;;;;14.98;5.90;;;;;;;;;;5034972;28;20036;-87
2022/05/12 04:23:06;;;;;;;15.27;5.53;;;;;;;;;;5031303;28;20041;-87
2022/05/12 04:25:32;;;;;;;13.85;5.30;;;;;;;;;;5024377;28;20110;-88
2022/05/12 04:27:58;;;;;;;12.88;6.07;;;;;;;;;;5022576;28;20033;-87
2022/05/12 04:30:25;;;;;;;15.38;5.95;;;;;;;;;;5045942;28;20041;-85
2022/05/12 04:32:52;;;;;;;12.57;5.38;;;;;;;;;;5025051;28;20555;-89
2022/05/12 04:35:18;;;;;;;14.00;6.15;;;;;;;;;;5026601;28;20072;-88
2022/05/12 04:37:52;;;;;;;16.05;6.45;;;;;;;;;;5028829;28;20044;-85
2022/05/12 04:40:29;;;;;;;16.42;6.35;;;;;;;;;;5037456;28;20466;-83
2022/05/12 04:42:55;;;;;;;16.85;6.35;;;;;;;;;;5053889;28;20098;-85
2022/05/12 04:45:22;;;;;;;16.77;6.00;;;;;;;;;;5020903;28;20509;-88
2022/05/12 04:47:49;;;;;;;23.35;7.60;;;;;;;;;;5026083;28;20520;-83
2022/05/12 04:50:20;;;;;;;12.63;6.10;;;;;;;;;;5040965;28;20458;-82
2022/05/12 04:52:48;;;;;;;20.67;7.22;;;;;;;;;;5042243;28;20049;-88
2022/05/12 04:55:14;;;;;;;19.67;7.00;;;;;;;;;;5036078;28;20059;-88
2022/05/12 04:57:41;;;;;;;14.25;6.47;;;;;;;;;;5041346;28;20052;-88
2022/05/12 05:00:09;;;;;;;17.27;7.47;;;;;;;;;;5026271;28;20136;-82
2022/05/12 05:02:35;;;;;;;19.40;7.03;;;;;;;;;;5046627;28;20084;-86
2022/05/12 05:05:02;;;;;;;19.83;7.43;;;;;;;;;;5042544;28;20560;-86
2022/05/12 05:07:28;;;;;;;28.50;7.78;;;;;;;;;;5024067;28;20045;-86
2022/05/12 05:10:07;;;;;;;21.33;7.50;;;;;;;;;;5031817;28;20059;-87
2022/05/12 05:12:33;;;;;;;15.00;7.13;;;;;;;;;;5014167;28;20047;-83
2022/05/12 05:17:52;;;;;;;19.17;7.32;;;;;;;;;;5092603;23;20073;-87
2022/05/12 05:20:23;;;;;;;14.00;7.28;;;;;;;;;;4971926;28;20065;-84
2022/05/12 05:22:49;;;;;;;25.40;7.38;;;;;;;;;;4986327;28;20045;-87
2022/05/12 05:25:15;;;;;;;20.02;7.68;;;;;;;;;;5002397;28;20140;-87
2022/05/12 05:27:42;;;;;;;13.38;6.18;;;;;;;;;;4984161;28;20461;-87
2022/05/12 05:30:10;;;;;;;15.85;7.95;;;;;;;;;;5002492;28;20092;-84
2022/05/12 05:32:37;;;;;;;13.75;7.22;;;;;;;;;;5005024;28;20198;-88
2022/05/12 05:35:04;;;;;;;16.63;7.22;;;;;;;;;;5000109;28;20088;-89
2022/05/12 05:37:30;;;;;;;17.33;7.30;;;;;;;;;;5000667;28;20140;-84
2022/05/12 05:39:58;;;;;;;26.13;7.55;;;;;;;;;;4996792;28;20486;-85
2022/05/12 05:42:25;;;;;;;13.30;6.60;;;;;;;;;;4986998;28;20037;-87
2022/05/12 05:44:51;;;;;;;17.40;7.78;;;;;;;;;;4993572;28;20049;-87
2022/05/12 05:47:17;;;;;;;13.82;7.57;;;;;;;;;;5002656;28;20057;-88
2022/05/12 05:49:52;;;;;;;17.52;7.93;;;;;;;;;;5012004;28;20069;-87
2022/05/12 05:55:03;;;;;;;16.88;7.72;;;;;;;;;;4988384;28;20041;-83
2022/05/12 05:57:30;;;;;;;13.00;7.50;;;;;;;;;;4997748;28;20050;-86
2022/05/12 05:59:58;;;;;;;16.38;7.72;;;;;;;;;;5002644;28;20049;-83
2022/05/12 06:02:24;;;;;;;14.23;6.70;;;;;;;;;;5001783;28;20049;-84
2022/05/12 06:04:50;;;;;;;15.88;7.32;;;;;;;;;;5003098;28;20046;-84
2022/05/12 06:07:16;;;;;;;21.20;7.00;;;;;;;;;;4981659;28;20061;-84
2022/05/12 06:09:51;;;;;;;11.75;6.15;;;;;;;;;;4982884;28;20441;-86
2022/05/12 06:12:17;;;;;;;13.35;6.25;;;;;;;;;;4982614;28;20061;-82
2022/05/12 06:14:43;;;;;;;11.23;5.88;;;;;;;;;;4984412;28;20046;-84
2022/05/12 06:17:09;;;;;;;14.95;6.18;;;;;;;;;;4999655;28;20446;-85
2022/05/12 06:19:36;;;;;;;10.98;5.32;;;;;;;;;;5003383;28;20050;-82
2022/05/12 06:22:02;;;;;;;22.27;6.40;;;;;;;;;;4997634;28;20079;-87
2022/05/12 06:24:28;;;;;;;12.57;5.30;;;;;;;;;;4980734;28;20434;-85
2022/05/12 06:26:55;;;;;;;12.65;5.53;;;;;;;;;;5000180;28;20692;-85
2022/05/12 06:29:21;;;;;;;15.20;5.03;;;;;;;;;;5001320;28;20121;-83
2022/05/12 06:31:47;;;;;;;14.63;5.50;;;;;;;;;;4999270;28;20042;-84
2022/05/12 06:34:14;;;;;;;10.48;4.38;;;;;;;;;;4998817;28;20769;-84
2022/05/12 06:36:40;;;;;;;13.50;5.05;;;;;;;;;;4983096;28;20123;-86
2022/05/12 06:39:06;;;;;;;13.32;4.22;;;;;;;;;;4979945;28;20517;-85
2022/05/12 06:41:33;;;;;;;14.15;4.13;;;;;;;;;;5000113;28;20053;-85
2022/05/12 06:44:01;;;;;;;11.45;4.25;;;;;;;;;;4966290;28;20401;-85
2022/05/12 06:46:27;;;;;;;13.32;4.43;;;;;;;;;;4968559;28;20589;-83
2022/05/12 06:49:05;;;;;;;11.32;3.85;;;;;;;;;;4981594;28;20494;-85
2022/05/12 06:51:32;;;;;;;9.73;4.43;;;;;;;;;;5001823;28;20418;-84
2022/05/12 06:53:59;;;;;;;12.95;3.90;;;;;;;;;;4983356;28;20089;-84
2022/05/12 06:56:25;;;;;;;10.45;3.60;;;;;;;;;;4966761;28;20160;-85
2022/05/12 06:58:52;;;;;;;12.80;4.47;;;;;;;;;;4984382;28;20042;-83
2022/05/12 07:01:19;;;;;;;15.10;4.20;;;;;;;;;;4983106;28;20050;-84
2022/05/12 07:03:45;;;;;;;13.48;3.88;;;;;;;;;;5003138;28;20133;-84
2022/05/12 07:06:12;;;;;;;12.65;4.05;;;;;;;;;;4997579;28;20041;-83
2022/05/12 07:08:42;;;;;;;16.58;3.65;;;;;;;;;;4968451;28;20053;-83
2022/05/12 07:11:08;;;;;;;10.50;3.60;;;;;;;;;;4988387;28;20046;-84
2022/05/12 07:13:35;;;;;;;10.00;3.75;;;;;;;;;;5003467;28;20033;-84
2022/05/12 07:16:01;;;;;;;13.45;3.40;;;;;;;;;;5009988;28;20061;-84
2022/05/12 07:18:28;;;;;;;13.63;3.80;;;;;;;;;;5006283;28;20034;-84
2022/05/12 07:26:35;;;;;;;11.70;3.40;;;;;;;;;;4984429;28;20061;-84
2022/05/12 07:29:02;;;;;;;11.32;3.42;;;;;;;;;;5000794;28;20125;-83
2022/05/12 07:31:29;;;;;;;15.73;3.53;;;;;;;;;;4983874;28;20042;-78
2022/05/12 07:33:57;;;;;;;10.63;3.92;;;;;;;;;;5001860;28;20121;-79
2022/05/12 07:36:25;;;;;;;7.43;2.40;;;;;;;;;;4982934;28;20054;-78
2022/05/12 07:38:52;;;;;;;7.47;2.80;;;;;;;;;;5000888;28;20531;-78
2022/05/12 07:41:18;;;;;;;10.60;3.00;;;;;;;;;;5000229;28;20044;-79
2022/05/12 07:43:45;;;;;;;9.20;2.20;;;;;;;;;;4999500;28;20045;-80
2022/05/12 07:46:12;;;;;;;10.32;2.58;;;;;;;;;;4981198;28;20038;-78
2022/05/12 07:48:39;;;;;;;7.03;2.40;;;;;;;;;;4986413;28;20069;-79
2022/05/12 07:51:05;;;;;;;6.55;2.50;;;;;;;;;;4983684;28;20030;-78
2022/05/12 07:53:32;;;;;;;9.93;2.70;;;;;;;;;;4983045;28;20048;-78
2022/05/12 07:55:58;;;;;;;10.57;2.45;;;;;;;;;;4992762;28;20124;-79
2022/05/12 07:58:24;;;;;;;10.98;2.30;;;;;;;;;;4995123;28;20566;-79
2022/05/12 08:00:53;;;;;;;6.97;2.08;;;;;;;;;;4982523;28;20486;-79
2022/05/12 08:03:19;;;;;;;8.75;2.60;;;;;;;;;;4980958;28;20129;-79
2022/05/12 08:05:45;;;;;;;10.30;2.10;;;;;;;;;;4967344;28;20046;-79
2022/05/12 08:08:11;;;;;;;8.82;2.33;;;;;;;;;;4983344;28;20045;-79
2022/05/12 08:10:38;;;;;;;6.75;2.00;;;;;;;;;;4983391;28;20585;-78
2022/05/12 08:13:04;;;;;;;16.58;2.20;;;;;;;;;;4983270;28;20770;-78
2022/05/12 08:15:30;;;;;;;7.75;2.00;;;;;;;;;;4999183;28;20030;-79
2022/05/12 08:17:57;;;;;;;10.52;2.72;;;;;;;;;;5002207;28;20049;-79
2022/05/12 08:20:23;;;;;;;11.10;2.72;;;;;;;;;;4966259;28;20045;-79
2022/05/12 08:22:50;;;;;;;10.35;2.38;;;;;;;;;;5000937;28;20802;-78
2022/05/12 08:25:16;;;;;;;9.80;2.80;;;;;;;;;;5000526;28;20057;-79
2022/05/12 08:27:43;;;;;;;7.90;2.00;;;;;;;;;;4980146;28;20038;-78
2022/05/12 08:30:17;;;;;;;12.80;3.08;;;;;;;;;;4982470;28;20038;-78
2022/05/12 08:32:43;;;;;;;10.23;1.92;;;;;;;;;;4999712;28;20169;-78
2022/05/12 08:35:10;;;;;;;9.23;2.63;;;;;;;;;;4982039;28;20034;-79
2022/05/12 08:37:36;;;;;;;9.23;2.10;;;;;;;;;;4982230;28;20038;-78
2022/05/12 08:40:03;;;;;;;10.07;1.77;;;;;;;;;;4950137;28;20053;-79
2022/05/12 08:42:29;;;;;;;8.23;2.10;;;;;;;;;;4978481;28;20408;-78
2022/05/12 08:44:57;;;;;;;8.15;2.30;;;;;;;;;;4966822;28;20497;-79
2022/05/12 08:47:27;;;;;;;6.63;1.90;;;;;;;;;;4981804;28;20082;-79
2022/05/12 08:49:53;;;;;;;9.68;2.00;;;;;;;;;;4981670;28;20057;-78
2022/05/12 08:52:42;;;;;;;6.93;2.00;;;;;;;;;;4982877;28;20049;-78
2022/05/12 08:55:29;;;;;;;6.22;1.80;;;;;;;;;;4989611;28;20494;-78
2022/05/12 08:58:02;;;;;;;12.25;2.25;;;;;;;;;;4982884;28;20133;-79
2022/05/12 09:00:36;;;;;;;5.20;1.40;;;;;;;;;;4965915;28;20529;-79
2022/05/12 09:03:08;;;;;;;9.07;2.05;;;;;;;;;;4977085;28;20371;-79
2022/05/12 09:05:37;;;;;;;7.60;2.35;;;;;;;;;;5001250;28;20050;-79
2022/05/12 09:08:07;;;;;;;9.27;2.45;;;;;;;;;;4997816;28;20212;-78
2022/05/12 09:10:53;;;;;;;12.05;2.90;;;;;;;;;;5002147;28;20034;-78
2022/05/12 09:13:27;;;;;;;6.97;2.05;;;;;;;;;;4985656;28;20049;-79
2022/05/12 09:16:07;;;;;;;5.72;1.92;;;;;;;;;;4999970;28;20153;-79
2022/05/12 09:18:34;;;;;;;6.50;1.85;;;;;;;;;;5002871;28;20101;-78
2022/05/12 09:21:02;;;;;;;7.05;1.65;;;;;;;;;;5000983;28;20042;-78
2022/05/12 09:23:28;;;;;;;6.80;1.67;;;;;;;;;;4982586;28;20054;-79
2022/05/12 09:25:54;;;;;;;7.95;1.98;;;;;;;;;;5003175;28;20061;-79
2022/05/12 09:28:27;;;;;;;7.32;1.58;;;;;;;;;;5004129;28;20056;-78
2022/05/12 09:30:55;;;;;;;7.97;2.05;;;;;;;;;;4985171;28;20600;-79
2022/05/12 09:33:24;;;;;;;5.90;1.50;;;;;;;;;;4969626;28;20042;-78
2022/05/12 09:35:57;;;;;;;5.05;1.30;;;;;;;;;;4972321;28;20093;-78
2022/05/12 09:38:26;;;;;;;4.70;1.90;;;;;;;;;;4984162;28;20172;-80
2022/05/12 09:40:52;;;;;;;6.00;1.70;;;;;;;;;;4964516;28;20406;-79
2022/05/12 09:43:37;;;;;;;8.95;1.80;;;;;;;;;;5000686;28;20685;-78
2022/05/12 09:46:04;;;;;;;7.57;1.90;;;;;;;;;;4969647;28;20480;-79
2022/05/12 09:48:31;;;;;;;8.35;1.70;;;;;;;;;;4987154;28;20046;-79
2022/05/12 09:51:15;;;;;;;6.43;1.50;;;;;;;;;;5010103;28;20049;-78
2022/05/12 09:53:42;;;;;;;10.45;1.83;;;;;;;;;;5002734;28;20045;-78
2022/05/12 09:56:11;;;;;;;4.57;1.35;;;;;;;;;;5007744;28;20046;-79
2022/05/12 09:58:38;;;;;;;7.07;1.95;;;;;;;;;;4990058;28;20406;-79
2022/05/12 10:01:09;;;;;;;9.02;2.30;;;;;;;;;;4997640;28;20045;-78
2022/05/12 10:09:25;;;;;;;8.32;1.83;;;;;;;;;;4985397;28;20046;-79
2022/05/12 10:11:51;;;;;;;9.43;1.73;;;;;;;;;;5002132;28;20096;-79
2022/05/12 10:14:33;;;;;;;8.60;1.90;;;;;;;;;;5001114;28;20061;-79
2022/05/12 10:17:00;;;;;;;6.60;1.65;;;;;;;;;;4999426;28;20509;-78
2022/05/12 10:19:29;;;;;;;5.35;1.90;;;;;;;;;;5003908;28;20045;-79
2022/05/12 10:22:08;;;;;;;4.45;1.33;;;;;;;;;;4983038;28;20125;-79
2022/05/12 10:24:45;;;;;;;7.88;2.63;;;;;;;;;;4999689;28;20034;-79
2022/05/12 10:27:17;;;;;;;5.35;1.90;;;;;;;;;;4982203;28;20049;-78
2022/05/12 10:29:43;;;;;;;3.22;1.30;;;;;;;;;;4984214;28;20029;-79
2022/05/12 10:32:12;;;;;;;5.53;1.27;;;;;;;;;;4998146;28;20104;-79
2022/05/12 10:34:44;;;;;;;6.55;1.40;;;;;;;;;;5001666;28;20078;-79
2022/05/12 10:37:19;;;;;;;9.10;2.55;;;;;;;;;;4984378;28;20050;-79
2022/05/12 10:39:50;;;;;;;3.80;1.30;;;;;;;;;;4964593;28;20080;-79
2022/05/12 10:42:22;;;;;;;4.10;1.20;;;;;;;;;;4996267;28;20038;-79
2022/05/12 10:44:55;;;;;;;6.25;1.60;;;;;;;;;;4969495;28;20141;-79
2022/05/12 10:47:40;;;;;;;9.10;2.07;;;;;;;;;;5001126;28;20117;-79
2022/05/12 10:50:28;;;;;;;9.15;2.08;;;18.80;99.90;;;;;;5000931;28;20087;-79
2022/05/12 10:53:09;;;;;;;5.47;1.67;;;;;;;;;;5007443;28;20052;-79
2022/05/12 10:55:54;;;;;;;7.82;1.48;;;;;;;;;;4988115;28;20568;-79
2022/05/12 10:58:26;;;;;;;6.32;1.45;;;;;;;;;;4989127;28;20101;-79
2022/05/12 11:01:11;;;;;;;4.82;1.48;;;;;;;;;;5006367;28;20050;-79
2022/05/12 11:03:48;;;;;;;7.60;1.90;;;;;;;;;;4989569;28;20041;-79
2022/05/12 11:06:16;;;;;;;7.30;1.77;;;;;;;;;;4990772;28;20107;-79
2022/05/12 11:08:51;;;;;;;4.82;1.50;;;;;;;;;;4989009;28;20450;-79
2022/05/12 11:11:26;;;;;;;8.48;1.75;;;;;;;;;;4989160;28;20041;-79
2022/05/12 11:13:57;;;;;;;6.78;2.00;;;;;;;;;;4972653;28;20402;-79
2022/05/12 11:16:26;;;;;;;4.03;1.50;;;18.50;99.90;;;;;;4985806;28;20057;-79
2022/05/12 11:19:10;;;;;;;10.48;1.48;;;;;;;;;;4987433;28;20097;-79
2022/05/12 11:21:36;;;;;;;;;;;;;;;;;;4985553;28;21062;-79
2022/05/12 11:24:10;;;;;;;6.05;1.42;;;;;;;;;;4970106;28;20412;-79
2022/05/12 11:26:55;;;;;;;6.15;1.20;;;;;;;;;;4983765;28;20397;-79
2022/05/12 11:32:24;;;;;;;3.95;1.35;;;;;;;;;;4987843;28;20081;-80
2022/05/12 11:34:51;;;;;;;3.22;1.38;;;;;;;;;;4967928;28;20073;-78
2022/05/12 11:37:33;;;;;;;4.18;1.63;;;;;;;;;;4969369;28;20092;-78
2022/05/12 11:40:00;;;;;;;8.27;1.95;;;;;;;;;;4986313;28;20065;-79
2022/05/12 11:45:48;;;;;;;6.13;1.60;;;;;;;;;;4969944;28;20049;-79
2022/05/12 11:48:14;;;;;;;6.95;1.55;;;;;;;;;;4967899;28;20046;-79
2022/05/12 11:50:56;;;;;;;5.70;1.13;;;;;;;;;;4976291;28;20061;-79
2022/05/12 11:53:34;;;;;;;7.03;1.70;;;;;;;;;;4951274;28;20137;-79
2022/05/12 11:56:02;;;;;;;6.22;1.92;;;;;;;;;;4960998;28;20205;-78
2022/05/12 11:58:33;;;;;;;4.28;1.13;;;;;;;;;;4949562;28;20513;-79
2022/05/12 12:01:02;;;;;;;3.60;1.25;;;;;;;;;;4946845;28;20047;-79
2022/05/12 12:03:28;;;;;;;4.60;1.70;;;;;;;;;;4949417;28;20074;-79
2022/05/12 12:05:54;;;;;;;3.65;1.20;;;;;;;;;;4968978;28;20080;-79
2022/05/12 12:08:32;;;;;;;4.65;1.08;;;;;;;;;;4985815;28;20855;-77
2022/05/12 12:11:13;;;;;;;5.72;1.73;;;;;;;;;;4985402;28;20091;-77
2022/05/12 12:13:43;;;;;;;4.93;1.75;;;;;;;;;;4965874;28;20050;-77
2022/05/12 12:16:09;;;;;;;5.22;1.08;;;;;;;;;;4975220;28;20053;-77
2022/05/12 12:18:35;;;;;;;3.05;1.20;;;;;;;;;;5003206;28;20447;-76
2022/05/12 12:21:21;;;;;;;4.25;1.27;;;;;;;;;;5005265;28;20050;-77
2022/05/12 12:23:58;;;;;;;4.70;1.20;;;;;;;;;;5005368;28;20041;-76
2022/05/12 12:26:28;;;;;;;5.07;1.20;;;;;;;;;;4992560;28;20042;-77
2022/05/12 12:28:58;;;;;;;6.40;1.25;;;;;;;;;;5018654;28;20034;-76
2022/05/12 12:31:37;;;;;;;4.13;1.42;;;;;;;;;;5018343;28;20045;-76
2022/05/12 12:34:19;;;;;;;3.45;1.40;;;;;;;;;;4973883;28;20033;-77
2022/05/12 12:37:05;;;;;;;6.45;1.48;;;;;;;;;;5004316;28;20057;-79
2022/05/12 12:39:39;;;;;;;3.38;1.42;;;;;;;;;;5002953;28;20046;-77
2022/05/12 12:42:23;;;;;;;2.75;1.10;;;;;;;;;;5005641;28;20057;-77
2022/05/12 12:45:00;;;;;;;4.70;1.55;;;21.20;99.90;;;;;;5004577;28;20058;-77
2022/05/12 12:47:30;;;;;;;13.55;1.60;;;;;;;;;;4973679;28;21166;-77
2022/05/12 12:50:14;;;;;;;8.52;1.15;;;;;;;;;;4997099;28;20057;-78
2022/05/12 12:52:40;;;;;;;;;;;;;;;;;;4988123;28;20227;-77
2022/05/12 12:57:59;;;;;;;5.45;1.30;;;;;;;;;;4988257;28;20057;-77
2022/05/12 13:00:25;;;;;;;4.72;1.13;;;;;;;;;;4971883;28;20818;-77
2022/05/12 13:02:56;;;;;;;8.13;1.23;;;;;;;;;;4972169;28;20180;-78
2022/05/12 13:05:22;;;;;;;6.70;1.10;;;;;;;;;;5001235;28;20046;-77
2022/05/12 13:08:00;;;;;;;8.30;1.23;;;;;;;;;;4989404;28;20054;-76
2022/05/12 13:10:28;;;;;;;5.53;1.20;;;;;;;;;;4969973;28;20445;-78
2022/05/12 13:13:01;;;;;;;5.35;1.27;;;;;;;;;;4973428;28;20056;-78
2022/05/12 13:15:28;;;;;;;;;;;20.60;99.90;;;;;;4992511;28;20042;-79
2022/05/12 13:18:14;;;;;;;5.20;1.17;;;;;;;;;;5006580;28;19922;-78
2022/05/12 13:20:41;;;;;;;6.30;1.10;;;;;;;;;;5006567;28;20042;-78
2022/05/12 13:23:21;;;;;;;5.50;1.23;;;;;;;;;;4974029;28;20054;-78
2022/05/12 13:25:48;;;;;;;3.97;1.35;;;;;;;;;;5009627;28;20057;-78
2022/05/12 13:28:22;;;;;;;7.65;1.17;;;;;;;;;;4959228;28;20042;-78
2022/05/12 13:30:50;;;;;;;3.35;1.27;;;;;;;;;;4970102;28;20495;-78
2022/05/12 13:33:26;;;;;;;6.22;2.00;;;;;;;;;;4978234;28;20046;-78
2022/05/12 13:36:00;;;;;;;3.60;1.50;;;;;;;;;;4987647;28;20472;-78
2022/05/12 13:38:31;;;;;;;4.57;1.50;;;;;;;;;;5007578;28;20064;-79
2022/05/12 13:41:02;;;;;;;5.65;1.30;;;;;;;;;;4991902;28;20042;-79
2022/05/12 13:43:28;;;;;;;6.32;1.63;;;;;;;;;;5008158;28;20042;-79
2022/05/12 13:46:07;;;;;;;5.82;1.40;;;;;;;;;;4989334;28;20046;-79
2022/05/12 13:48:34;;;;;;;5.57;1.45;;;;;;;;;;5006755;28;20046;-78
2022/05/12 13:51:01;;;;;;;7.18;1.85;;;;;;;;;;5008213;28;20222;-78
2022/05/12 13:53:29;;;;;;;6.55;1.70;;;;;;;;;;5005268;28;20107;-78
2022/05/12 13:56:05;;;;;;;7.05;1.20;;;;;;;;;;5007702;28;20711;-79
2022/05/12 13:58:32;;;;;;;5.45;1.20;;;;;;;;;;5005008;28;20466;-78
2022/05/12 14:00:58;;;;;;;3.80;1.20;;;;;;;;;;5005844;28;20079;-78
2022/05/12 14:03:24;;;;;;;5.05;1.40;;;;;;;;;;5007335;28;20053;-78
2022/05/12 14:06:17;;;;;;;6.05;2.60;;;;;;;;;;5005811;28;20072;-77
2022/05/12 14:08:43;;;;;;;5.15;1.55;;;;;;;;;;5002780;28;20046;-78
2022/05/12 14:11:11;;;;;;;3.80;1.17;;;;;;;;;;5004502;28;20038;-78
2022/05/12 14:19:15;;;;;;;3.97;1.42;;;;;;;;;;5005160;28;20132;-78
2022/05/12 14:21:44;;;;;;;6.20;1.60;;;;;;;;;;4988689;28;21089;-78
2022/05/12 14:24:11;;;;;;;6.68;1.85;;;;;;;;;;5004429;28;20060;-78
2022/05/12 14:26:37;;;;;;;5.70;1.65;;;;;;;;;;5007758;28;20049;-78
2022/05/12 14:29:03;;;;;;;5.28;1.30;;;;;;;;;;4988033;28;20042;-78
2022/05/12 14:31:37;;;;;;;3.75;1.33;;;;;;;;;;4990725;28;20041;-78
2022/05/12 14:34:03;;;;;;;5.65;1.17;;;;;;;;;;5015216;28;20037;-78
2022/05/12 14:36:30;;;;;;;3.90;1.20;;;;;;;;;;5009634;28;20046;-77
2022/05/12 14:38:56;;;;;;;2.22;1.13;;;;;;;;;;5005272;28;20084;-78
2022/05/12 14:41:22;;;;;;;8.85;1.52;;;;;;;;;;5009148;28;20038;-80
2022/05/12 14:43:48;;;;;;;11.35;1.58;;;;;;;;;;4993314;28;20546;-79
2022/05/12 14:46:15;;;;;;;5.88;1.50;;;;;;;;;;5011842;28;20054;-79
2022/05/12 14:48:42;;;;;;;4.20;1.20;;;;;;;;;;5008578;28;20034;-79
2022/05/12 14:51:09;;;;;;;6.10;1.30;;;;;;;;;;5012034;28;20050;-78
2022/05/12 14:53:37;;;;;;;2.88;1.55;;;;;;;;;;4990403;28;20505;-78
2022/05/12 14:56:03;;;;;;;7.03;1.23;;;;;;;;;;5011259;28;20062;-78
2022/05/12 14:58:30;;;;;;;7.10;1.70;;;;;;;;;;5012451;28;20502;-79
2022/05/12 15:00:56;;;;;;;6.75;1.65;;;;;;;;;;5014241;28;20046;-78
2022/05/12 15:03:22;;;;;;;6.90;1.83;;;;;;;;;;5009329;28;20804;-78
2022/05/12 15:05:48;;;;;;;6.22;1.55;;;;;;;;;;5011764;28;20084;-78
2022/05/12 15:08:14;;;;;;;4.38;1.23;;;;;;;;;;5014890;28;20042;-78
2022/05/12 15:10:40;;;;;;;4.13;1.30;;;;;;;;;;5017105;28;20038;-79
2022/05/12 15:13:06;;;;;;;5.15;1.63;;;;;;;;;;5002755;28;20053;-79
2022/05/12 15:15:34;;;;;;;7.25;1.73;;;;;;;;;;4973996;28;20785;-78
2022/05/12 15:18:00;;;;;;;5.88;1.63;;;;;;;;;;5007936;28;20046;-78
2022/05/12 15:20:26;;;;;;;4.82;1.55;;;;;;;;;;5004436;28;20084;-79
2022/05/12 15:22:53;;;;;;;3.83;1.20;;;;;;;;;;4988176;28;20054;-79